Time;durP1;ratioP1;P1;durP2;ratioP2;P2;SDS_P1;SDS_P2;PMS_P1;PMS_P2;Temp;Humidity;BMP_temperature;BMP_pressure;BME280_temperature;BME280_humidity;BME280_pressure;Samples;Min_cycle;Max_cycle;Signal;HPM_P1;HPM_P2
2021/01/31 00:00:22;;;;;;;8.00;7.20;;;13.80;47.90;;;;;;6279021;22;20020;-78
2021/01/31 00:02:48;;;;;;;8.90;7.75;;;13.80;47.90;;;;;;6290080;22;20026;-78
2021/01/31 00:05:15;;;;;;;8.75;7.85;;;13.80;47.90;;;;;;6290437;22;20019;-76
2021/01/31 00:07:41;;;;;;;8.95;8.05;;;13.80;47.90;;;;;;6290353;22;20090;-77
2021/01/31 00:10:08;;;;;;;8.73;7.93;;;13.70;47.80;;;;;;6290641;22;20019;-77
2021/01/31 00:12:35;;;;;;;9.15;8.25;;;13.70;47.80;;;;;;6290447;22;20012;-77
2021/01/31 00:15:00;;;;;;;9.20;8.30;;;13.70;47.90;;;;;;6280385;22;20012;-78
2021/01/31 00:17:26;;;;;;;9.80;8.82;;;13.70;47.90;;;;;;6290679;22;20309;-77
2021/01/31 00:19:52;;;;;;;9.63;8.73;;;13.70;47.90;;;;;;6290433;22;20417;-77
2021/01/31 00:22:18;;;;;;;9.75;8.75;;;13.70;47.90;;;;;;6290636;22;20022;-78
2021/01/31 00:24:44;;;;;;;9.52;8.57;;;13.70;48.00;;;;;;6280287;22;20428;-77
2021/01/31 00:27:09;;;;;;;10.18;9.18;;;13.70;47.90;;;;;;6263545;22;20047;-78
2021/01/31 00:29:35;;;;;;;11.48;10.25;;;13.70;47.90;;;;;;6290064;22;20012;-78
2021/01/31 00:32:01;;;;;;;10.45;9.38;;;13.70;47.90;;;;;;6290007;22;20015;-78
2021/01/31 00:34:27;;;;;;;10.52;9.48;;;13.70;47.90;;;;;;6290273;22;20016;-77
2021/01/31 00:36:53;;;;;;;11.43;10.32;;;13.70;47.90;;;;;;6290141;22;20085;-77
2021/01/31 00:39:19;;;;;;;11.52;10.38;;;13.60;47.80;;;;;;6290957;22;20020;-78
2021/01/31 00:41:45;;;;;;;10.88;9.65;;;13.70;47.80;;;;;;6290201;22;20011;-77
2021/01/31 00:44:11;;;;;;;11.40;10.07;;;13.60;47.80;;;;;;6290012;22;20019;-77
2021/01/31 00:46:40;;;;;;;11.77;10.57;;;13.60;47.80;;;;;;6290124;22;20018;-77
2021/01/31 00:49:07;;;;;;;12.93;11.52;;;13.60;47.80;;;;;;6290389;22;20015;-79
2021/01/31 00:51:33;;;;;;;12.50;11.10;;;13.60;47.80;;;;;;6289828;22;20015;-76
2021/01/31 00:53:59;;;;;;;11.93;10.63;;;13.60;47.80;;;;;;6279681;22;20050;-77
2021/01/31 00:56:25;;;;;;;12.23;11.02;;;13.60;47.80;;;;;;6290246;22;20011;-77
2021/01/31 00:58:54;;;;;;;12.38;11.07;;;13.60;47.80;;;;;;6289659;22;20024;-77
2021/01/31 01:01:20;;;;;;;12.93;11.48;;;13.60;47.80;;;;;;6283907;22;20046;-78
2021/01/31 01:03:46;;;;;;;13.18;11.77;;;13.60;47.80;;;;;;6291320;22;20066;-77
2021/01/31 01:06:13;;;;;;;12.18;10.93;;;13.60;47.70;;;;;;6289875;22;20015;-78
2021/01/31 01:08:38;;;;;;;13.45;12.00;;;13.60;47.80;;;;;;6289723;22;20073;-77
2021/01/31 01:11:05;;;;;;;13.27;11.45;;;13.60;47.80;;;;;;6289738;22;20016;-77
2021/01/31 01:13:31;;;;;;;13.10;11.70;;;13.60;47.80;;;;;;6289867;22;20026;-77
2021/01/31 01:15:57;;;;;;;12.57;10.95;;;13.60;47.80;;;;;;6289510;22;20309;-76
2021/01/31 01:18:23;;;;;;;13.32;11.93;;;13.50;47.70;;;;;;6289689;22;20015;-79
2021/01/31 01:20:49;;;;;;;14.82;12.65;;;13.60;47.70;;;;;;6289925;22;20030;-78
2021/01/31 01:23:16;;;;;;;13.30;11.90;;;13.50;47.60;;;;;;6279244;22;20015;-77
2021/01/31 01:25:41;;;;;;;13.45;12.05;;;13.50;47.60;;;;;;6263481;22;20023;-77
2021/01/31 01:28:07;;;;;;;13.30;11.90;;;13.60;47.60;;;;;;6289922;22;20023;-77
2021/01/31 01:30:34;;;;;;;12.55;11.25;;;13.60;47.60;;;;;;6289464;22;20027;-77
2021/01/31 01:33:00;;;;;;;12.38;11.13;;;13.50;47.50;;;;;;6288652;22;20382;-77
2021/01/31 01:35:28;;;;;;;14.00;12.50;;;13.50;47.50;;;;;;6289344;22;20026;-77
2021/01/31 01:37:54;;;;;;;13.50;12.10;;;13.50;47.50;;;;;;6289293;22;20035;-79
2021/01/31 01:40:34;;;;;;;12.57;11.27;;;13.50;47.60;;;;;;6289519;22;20011;-77
2021/01/31 01:43:00;;;;;;;12.85;11.45;;;13.50;47.50;;;;;;6289873;22;20026;-77
2021/01/31 01:45:27;;;;;;;12.82;11.50;;;13.50;47.50;;;;;;6289867;22;20011;-77
2021/01/31 01:47:57;;;;;;;12.13;10.90;;;13.50;47.50;;;;;;6289528;22;20012;-77
2021/01/31 01:50:36;;;;;;;11.85;10.60;;;13.50;47.50;;;;;;6289329;22;20015;-78
2021/01/31 01:53:04;;;;;;;12.10;10.90;;;13.50;47.50;;;;;;6289431;22;20012;-78
2021/01/31 01:55:37;;;;;;;11.98;10.77;;;13.50;47.50;;;;;;6289072;22;20302;-78
2021/01/31 01:58:15;;;;;;;11.90;10.65;;;13.50;47.40;;;;;;6289527;22;20012;-78
2021/01/31 02:00:45;;;;;;;12.23;10.93;;;13.50;47.40;;;;;;6285849;22;20358;-78
2021/01/31 02:03:19;;;;;;;12.27;11.00;;;13.50;47.30;;;;;;6289364;22;20019;-78
2021/01/31 02:05:52;;;;;;;;;;;13.50;47.30;;;;;;6289633;22;20012;-79
2021/01/31 02:08:18;;;;;;;11.77;10.57;;;13.40;47.50;;;;;;6290220;22;20274;-79
2021/01/31 02:10:47;;;;;;;11.68;10.48;;;13.40;47.40;;;;;;6262823;22;20016;-78
2021/01/31 02:13:12;;;;;;;11.30;10.20;;;13.50;47.30;;;;;;6289773;22;20016;-80
2021/01/31 02:15:39;;;;;;;11.57;10.38;;;13.50;47.30;;;;;;6288977;22;20020;-78
2021/01/31 02:18:34;;;;;;;11.38;10.27;;;13.50;47.30;;;;;;6288742;22;20019;-77
2021/01/31 02:21:06;;;;;;;12.10;10.90;;;13.40;47.20;;;;;;6289354;22;20019;-80
2021/01/31 02:24:00;;;;;;;11.13;9.95;;;13.40;47.10;;;;;;6288722;22;20011;-78
2021/01/31 02:26:44;;;;;;;12.02;10.82;;;13.50;47.10;;;;;;6201705;22;20424;-78
2021/01/31 02:29:48;;;;;;;11.18;10.05;;;13.50;47.10;;;;;;6289307;22;20023;-77
2021/01/31 02:32:32;;;;;;;12.07;10.70;;;13.50;47.00;;;;;;6289121;22;20022;-77
2021/01/31 02:35:08;;;;;;;11.57;10.38;;;13.40;47.00;;;;;;6289101;22;20011;-80
2021/01/31 02:38:03;;;;;;;11.90;10.70;;;13.40;47.00;;;;;;6289407;22;20016;-78
2021/01/31 02:41:07;;;;;;;11.27;10.18;;;13.50;47.00;;;;;;6289909;22;20020;-78
2021/01/31 02:43:44;;;;;;;10.48;9.48;;;13.40;47.00;;;;;;6202529;22;20015;-78
2021/01/31 02:46:34;;;;;;;12.07;10.88;;;13.40;46.90;;;;;;6279419;22;20029;-79
2021/01/31 02:49:17;;;;;;;10.68;9.68;;;13.40;46.80;;;;;;6288998;22;20023;-77
2021/01/31 02:51:52;;;;;;;11.10;10.00;;;13.40;46.90;;;;;;6288674;22;20412;-78
2021/01/31 02:54:24;;;;;;;10.55;9.55;;;13.40;46.80;;;;;;6289766;22;20015;-77
2021/01/31 02:57:08;;;;;;;11.23;9.77;;;13.40;46.80;;;;;;6289489;22;20038;-79
2021/01/31 02:59:33;;;;;;;;;;;13.40;46.80;;;;;;6289580;22;20043;-78
2021/01/31 03:02:06;;;;;;;11.02;9.93;;;13.40;47.00;;;;;;6280127;22;20219;-79
2021/01/31 03:04:41;;;;;;;10.95;9.82;;;13.40;46.80;;;;;;6288620;22;20074;-78
2021/01/31 03:07:14;;;;;;;9.88;8.93;;;13.30;46.70;;;;;;6289740;22;20091;-79
2021/01/31 03:10:06;;;;;;;10.32;9.32;;;13.30;46.60;;;;;;6288514;22;20313;-77
2021/01/31 03:12:39;;;;;;;10.02;9.02;;;13.40;46.60;;;;;;6262355;22;20059;-77
2021/01/31 03:15:14;;;;;;;10.35;9.35;;;13.30;46.50;;;;;;6288914;22;20058;-76
2021/01/31 03:17:45;;;;;;;9.75;8.85;;;13.40;46.50;;;;;;6289025;22;20034;-78
2021/01/31 03:20:18;;;;;;;8.93;8.13;;;13.40;46.40;;;;;;6288960;22;20020;-77
2021/01/31 03:22:56;;;;;;;9.80;8.82;;;13.40;46.40;;;;;;6288845;22;20020;-78
2021/01/31 03:25:31;;;;;;;9.02;8.18;;;13.30;46.30;;;;;;6262519;22;20020;-78
2021/01/31 03:27:56;;;;;;;8.98;8.13;;;13.30;46.30;;;;;;6288549;22;20016;-77
2021/01/31 03:30:22;;;;;;;9.82;8.85;;;13.30;46.30;;;;;;6288478;22;20487;-77
2021/01/31 03:32:55;;;;;;;9.77;8.88;;;13.30;46.20;;;;;;6288755;22;20137;-79
2021/01/31 03:35:23;;;;;;;9.35;8.48;;;13.40;46.10;;;;;;6289964;22;20026;-77
2021/01/31 03:38:14;;;;;;;9.50;8.60;;;13.40;46.20;;;;;;6290518;22;20016;-78
2021/01/31 03:40:48;;;;;;;9.18;8.27;;;13.30;46.00;;;;;;6267012;22;20018;-78
2021/01/31 03:43:14;;;;;;;9.18;8.27;;;13.30;46.00;;;;;;6254912;22;20039;-77
2021/01/31 03:46:14;;;;;;;8.85;8.05;;;13.30;46.00;;;;;;6290630;22;20016;-79
2021/01/31 03:49:01;;;;;;;8.57;7.78;;;13.30;46.00;;;;;;6290357;22;20015;-77
2021/01/31 03:51:30;;;;;;;8.95;8.15;;;13.30;46.00;;;;;;6290331;22;20011;-77
2021/01/31 03:53:56;;;;;;;8.20;7.40;;;13.30;46.00;;;;;;6290684;22;20011;-79
2021/01/31 03:56:33;;;;;;;8.75;7.90;;;13.30;46.00;;;;;;6290697;22;20020;-78
2021/01/31 03:58:59;;;;;;;9.00;8.20;;;13.30;45.90;;;;;;6290741;22;20023;-77
2021/01/31 04:01:27;;;;;;;9.10;8.30;;;13.30;45.90;;;;;;6283493;22;20027;-77
2021/01/31 04:04:15;;;;;;;8.85;8.05;;;13.30;45.80;;;;;;6280676;22;20015;-78
2021/01/31 04:06:47;;;;;;;9.40;8.50;;;13.30;45.80;;;;;;6290436;22;20026;-77
2021/01/31 04:09:15;;;;;;;9.77;8.88;;;13.30;45.70;;;;;;6290438;22;20020;-78
2021/01/31 04:11:43;;;;;;;9.30;8.43;;;13.30;45.60;;;;;;6280142;22;20023;-78
2021/01/31 04:14:24;;;;;;;8.88;8.07;;;13.30;45.50;;;;;;6290497;22;20015;-78
2021/01/31 04:16:53;;;;;;;9.02;8.15;;;13.30;45.50;;;;;;6290571;22;20012;-77
2021/01/31 04:19:20;;;;;;;9.63;8.73;;;13.30;45.50;;;;;;6290257;22;20016;-77
2021/01/31 04:21:46;;;;;;;9.02;8.23;;;13.20;45.40;;;;;;6290455;22;20079;-76
2021/01/31 04:24:12;;;;;;;9.35;8.45;;;13.20;45.40;;;;;;6290376;22;20023;-77
2021/01/31 04:26:39;;;;;;;9.15;8.25;;;13.30;45.40;;;;;;6290807;22;20102;-77
2021/01/31 04:29:05;;;;;;;8.75;7.95;;;13.30;45.30;;;;;;6263561;22;20470;-76
2021/01/31 04:31:31;;;;;;;9.55;8.65;;;13.30;45.30;;;;;;6290076;22;20030;-77
2021/01/31 04:33:57;;;;;;;10.15;9.15;;;13.30;45.30;;;;;;6290092;22;20077;-78
2021/01/31 04:36:24;;;;;;;8.80;8.00;;;13.30;45.20;;;;;;6289723;22;20043;-77
2021/01/31 04:38:52;;;;;;;9.75;8.82;;;13.30;45.20;;;;;;6290752;22;20015;-76
2021/01/31 04:41:19;;;;;;;8.65;7.85;;;13.30;45.20;;;;;;6290541;22;20023;-78
2021/01/31 04:43:47;;;;;;;9.35;8.45;;;13.30;45.20;;;;;;6290183;22;20046;-77
2021/01/31 04:46:18;;;;;;;9.15;8.25;;;13.30;45.10;;;;;;6289590;22;20096;-77
2021/01/31 04:49:19;;;;;;;8.40;7.65;;;13.30;45.10;;;;;;6290410;22;20027;-78
2021/01/31 04:52:02;;;;;;;8.73;7.93;;;13.20;45.10;;;;;;6289713;22;20312;-77
2021/01/31 04:54:39;;;;;;;8.32;7.63;;;13.20;45.10;;;;;;6290405;22;20093;-78
2021/01/31 04:57:13;;;;;;;8.35;7.60;;;13.20;45.10;;;;;;6290030;22;20026;-77
2021/01/31 04:59:47;;;;;;;8.82;7.95;;;13.20;45.00;;;;;;6290495;22;20428;-77
2021/01/31 05:02:29;;;;;;;8.45;7.65;;;13.20;45.00;;;;;;6279453;22;20018;-77
2021/01/31 05:04:57;;;;;;;8.25;7.47;;;13.20;44.90;;;;;;6289585;22;20495;-78
2021/01/31 05:07:27;;;;;;;8.40;7.60;;;13.20;44.90;;;;;;6289639;22;20080;-79
2021/01/31 05:09:53;;;;;;;8.20;7.40;;;13.20;44.90;;;;;;6279887;22;20011;-77
2021/01/31 05:12:22;;;;;;;8.00;7.30;;;13.20;44.90;;;;;;6253092;22;20320;-78
2021/01/31 05:15:10;;;;;;;8.00;7.30;;;13.20;44.90;;;;;;6289671;22;20016;-77
2021/01/31 05:17:36;;;;;;;8.20;7.40;;;13.20;44.90;;;;;;6289822;22;20016;-77
2021/01/31 05:20:08;;;;;;;7.70;7.00;;;13.20;44.80;;;;;;6289431;22;20446;-78
2021/01/31 05:22:42;;;;;;;8.63;7.82;;;13.20;44.80;;;;;;6289997;22;20086;-78
2021/01/31 05:25:11;;;;;;;;;;;13.20;44.80;;;;;;6279791;22;20022;-78
2021/01/31 05:27:37;;;;;;;7.65;6.95;;;13.20;45.10;;;;;;6288643;22;20296;-78
2021/01/31 05:30:03;;;;;;;8.38;7.30;;;13.20;45.30;;;;;;6263099;22;20095;-78
2021/01/31 05:32:29;;;;;;;7.53;6.50;;;13.20;45.40;;;;;;6289580;22;20015;-77
2021/01/31 05:34:57;;;;;;;7.10;6.18;;;13.20;45.60;;;;;;6288909;22;20019;-77
2021/01/31 05:37:42;;;;;;;12.38;7.22;;;13.30;46.00;;;;;;6289474;22;20007;-79
2021/01/31 05:40:12;;;;;;;11.68;7.57;;;13.30;46.10;;;;;;6289662;22;20015;-75
2021/01/31 05:42:45;;;;;;;18.48;6.82;;;13.30;46.40;;;;;;6279348;22;20012;-78
2021/01/31 05:45:19;;;;;;;11.10;6.57;;;13.40;46.90;;;;;;6289169;22;20043;-75
2021/01/31 05:47:48;;;;;;;14.93;7.65;;;13.40;47.80;;;;;;6289922;22;20082;-76
2021/01/31 05:50:38;;;;;;;13.73;7.25;;;13.50;47.30;;;;;;6278021;22;20503;-75
2021/01/31 05:53:26;;;;;;;7.93;6.28;;;13.50;47.30;;;;;;6258442;22;20016;-75
2021/01/31 05:55:52;;;;;;;8.80;5.38;;;13.50;47.50;;;;;;6288341;22;20367;-75
2021/01/31 05:58:24;;;;;;;7.18;6.05;;;13.50;47.50;;;;;;6278043;22;20038;-76
2021/01/31 06:01:09;;;;;;;7.13;5.97;;;13.60;47.40;;;;;;6277467;22;20016;-76
2021/01/31 06:03:35;;;;;;;22.38;5.55;;;13.60;47.10;;;;;;6287214;22;20023;-76
2021/01/31 06:06:35;;;;;;;9.77;5.85;;;13.60;47.10;;;;;;6287299;22;20083;-76
2021/01/31 06:09:16;;;;;;;9.00;6.28;;;13.70;47.00;;;;;;6250955;22;20049;-77
2021/01/31 06:11:44;;;;;;;17.27;5.90;;;13.70;46.90;;;;;;6287362;22;20027;-77
2021/01/31 06:14:31;;;;;;;17.67;7.85;;;13.70;47.20;;;;;;6285705;22;20035;-77
2021/01/31 06:17:08;;;;;;;16.50;4.85;;;13.70;46.40;;;;;;6287746;22;20146;-77
2021/01/31 06:19:38;;;;;;;12.40;4.88;;;13.70;47.40;;;;;;6261453;22;20086;-77
2021/01/31 06:22:06;;;;;;;16.38;5.03;;;13.80;47.80;;;;;;6275962;22;20366;-78
2021/01/31 06:24:34;;;;;;;18.77;4.95;;;13.90;48.30;;;;;;6287761;22;20011;-77
2021/01/31 06:27:02;;;;;;;8.45;3.90;;;14.00;48.50;;;;;;6286329;22;20042;-78
2021/01/31 06:30:05;;;;;;;11.52;3.92;;;14.10;48.70;;;;;;6287824;22;20020;-79
2021/01/31 06:32:33;;;;;;;12.50;4.70;;;14.30;49.00;;;;;;6288625;22;20015;-76
2021/01/31 06:35:18;;;;;;;10.90;4.30;;;14.30;49.00;;;;;;6288599;22;20015;-79
2021/01/31 06:38:02;;;;;;;10.25;3.55;;;14.40;49.10;;;;;;6277419;22;20086;-78
2021/01/31 06:40:28;;;;;;;19.35;3.55;;;14.50;49.20;;;;;;6286350;22;20016;-78
2021/01/31 06:43:24;;;;;;;4.45;2.83;;;14.50;49.30;;;;;;6286320;22;20012;-77
2021/01/31 06:46:08;;;;;;;10.18;4.07;;;14.60;49.30;;;;;;6288830;22;20047;-78
2021/01/31 06:48:45;;;;;;;8.43;3.35;;;14.60;49.20;;;;;;6277336;22;20015;-79
2021/01/31 06:51:29;;;;;;;9.77;3.83;;;14.70;49.40;;;;;;6288977;22;20020;-77
2021/01/31 06:53:58;;;;;;;7.68;3.15;;;14.80;49.60;;;;;;6284828;22;20077;-78
2021/01/31 06:56:53;;;;;;;7.32;3.85;;;14.80;49.60;;;;;;6284507;22;20047;-79
2021/01/31 06:59:38;;;;;;;11.60;5.75;;;14.90;49.20;;;;;;6287127;22;20125;-78
2021/01/31 07:02:38;;;;;;;9.15;4.85;;;14.90;48.30;;;;;;6279266;22;20019;-77
2021/01/31 07:05:31;;;;;;;9.43;6.03;;;14.80;48.40;;;;;;6287412;22;20034;-78
2021/01/31 07:07:59;;;;;;;9.45;4.43;;;14.90;48.10;;;;;;6287575;22;20020;-78
2021/01/31 07:10:51;;;;;;;13.93;5.40;;;14.90;48.50;;;;;;6277983;22;20016;-78
2021/01/31 07:13:57;;;;;;;12.95;4.85;;;14.90;48.70;;;;;;6287887;22;20388;-78
2021/01/31 07:16:36;;;;;;;13.18;4.85;;;15.00;48.70;;;;;;6290147;22;20015;-77
2021/01/31 07:19:18;;;;;;;11.30;5.38;;;15.00;48.70;;;;;;6262220;22;20031;-77
2021/01/31 07:22:09;;;;;;;14.00;5.75;;;15.10;48.70;;;;;;6289504;22;20061;-76
2021/01/31 07:24:43;;;;;;;12.70;4.90;;;15.10;48.30;;;;;;6288712;22;20012;-77
2021/01/31 07:27:43;;;;;;;11.27;4.70;;;15.10;48.50;;;;;;6287780;22;20027;-77
2021/01/31 07:30:23;;;;;;;10.98;4.93;;;15.10;48.50;;;;;;6269522;22;20016;-77
2021/01/31 07:33:01;;;;;;;10.10;4.78;;;15.10;48.50;;;;;;6288111;22;20058;-77
2021/01/31 07:35:32;;;;;;;9.55;4.63;;;15.10;48.50;;;;;;6286951;22;20105;-78
2021/01/31 07:38:16;;;;;;;13.30;4.50;;;15.10;48.50;;;;;;6289869;22;20038;-79
2021/01/31 07:40:45;;;;;;;12.75;4.32;;;15.10;48.50;;;;;;6287292;22;20016;-77
2021/01/31 07:43:16;;;;;;;9.70;4.55;;;15.20;48.60;;;;;;6288443;22;20097;-76
2021/01/31 07:45:42;;;;;;;16.00;7.45;;;15.20;48.70;;;;;;6289788;22;20012;-76
2021/01/31 07:48:27;;;;;;;9.82;7.50;;;15.30;48.20;;;;;;6289745;22;20022;-77
2021/01/31 07:50:54;;;;;;;12.23;5.07;;;15.20;47.80;;;;;;6290430;22;20011;-77
2021/01/31 07:53:38;;;;;;;8.15;5.60;;;15.20;48.30;;;;;;6290524;22;20012;-76
2021/01/31 07:56:26;;;;;;;10.32;5.07;;;15.20;48.50;;;;;;6263569;22;20420;-76
2021/01/31 07:58:53;;;;;;;9.18;4.35;;;15.20;48.70;;;;;;6288961;22;20328;-77
2021/01/31 08:01:41;;;;;;;6.78;4.65;;;15.30;48.90;;;;;;6283964;22;20020;-76
2021/01/31 08:04:16;;;;;;;8.88;5.28;;;15.30;48.90;;;;;;6290684;22;20012;-76
2021/01/31 08:06:47;;;;;;;10.93;5.05;;;15.40;48.90;;;;;;6279666;22;20474;-75
2021/01/31 08:09:25;;;;;;;9.23;5.55;;;15.40;48.80;;;;;;6290473;22;20019;-77
2021/01/31 08:11:54;;;;;;;6.53;5.32;;;15.40;48.70;;;;;;6290651;22;20023;-76
2021/01/31 08:14:57;;;;;;;9.40;4.38;;;15.40;48.60;;;;;;6252872;22;20038;-75
2021/01/31 08:17:45;;;;;;;10.95;5.47;;;15.50;48.80;;;;;;6289964;22;20086;-85
2021/01/31 08:20:42;;;;;;;14.38;6.30;;;15.50;48.80;;;;;;6227227;22;20099;-77
2021/01/31 08:23:10;;;;;;;15.75;6.85;;;15.50;48.80;;;;;;6267481;22;20026;-76
2021/01/31 08:25:59;;;;;;;17.80;7.57;;;15.60;48.60;;;;;;6288812;22;20515;-79
2021/01/31 08:28:28;;;;;;;20.55;13.00;;;15.60;48.40;;;;;;6289219;22;20030;-77
2021/01/31 08:31:09;;;;;;;13.18;10.00;;;15.50;45.50;;;;;;6288850;22;20015;-78
2021/01/31 08:33:37;;;;;;;17.95;11.65;;;15.40;45.60;;;;;;6278858;22;20020;-76
2021/01/31 08:36:03;;;;;;;16.70;7.53;;;15.30;45.90;;;;;;6262091;22;20440;-78
2021/01/31 08:38:31;;;;;;;12.63;6.95;;;15.30;46.70;;;;;;6288783;22;20016;-76
2021/01/31 08:43:33;;;;;;;12.02;8.10;;;15.30;47.90;;;;;;6289490;22;20012;-75
2021/01/31 08:46:42;;;;;;;13.15;7.88;;;15.40;48.10;;;;;;6289030;22;20505;-76
2021/01/31 08:49:13;;;;;;;11.93;6.65;;;15.40;48.20;;;;;;6195633;22;20019;-75
2021/01/31 08:51:45;;;;;;;10.77;6.03;;;15.40;48.40;;;;;;6288316;22;20034;-76
2021/01/31 08:54:19;;;;;;;8.20;5.97;;;15.40;48.60;;;;;;6289011;22;20098;-76
2021/01/31 08:56:47;;;;;;;9.18;6.35;;;15.50;48.70;;;;;;6278643;22;20313;-76
2021/01/31 08:59:21;;;;;;;8.68;6.03;;;15.50;49.00;;;;;;6278700;22;20016;-76
2021/01/31 09:01:52;;;;;;;;;;;15.50;49.10;;;;;;6277831;22;20113;-80
2021/01/31 09:04:20;;;;;;;10.27;5.20;;;15.60;49.20;;;;;;6250670;22;19953;-80
2021/01/31 09:06:49;;;;;;;8.77;4.88;;;15.60;49.60;;;;;;6278987;22;20016;-79
2021/01/31 09:09:28;;;;;;;7.72;4.80;;;15.60;49.60;;;;;;6288826;22;20016;-79
2021/01/31 09:12:10;;;;;;;15.23;13.30;;;15.70;49.50;;;;;;6287847;22;20030;-78
2021/01/31 09:14:41;;;;;;;11.48;8.23;;;15.70;46.10;;;;;;6288958;22;20012;-77
2021/01/31 09:17:23;;;;;;;8.20;5.72;;;15.60;46.90;;;;;;6286673;22;20432;-77
2021/01/31 09:20:03;;;;;;;8.13;5.68;;;15.60;48.10;;;;;;6287735;22;20015;-78
2021/01/31 09:22:29;;;;;;;11.73;5.22;;;15.60;48.50;;;;;;6287780;22;20367;-78
2021/01/31 09:25:01;;;;;;;6.53;4.85;;;15.60;48.70;;;;;;6288269;22;20023;-77
2021/01/31 09:27:27;;;;;;;4.55;4.15;;;15.60;48.70;;;;;;6285255;22;20141;-79
2021/01/31 09:30:00;;;;;;;10.75;5.03;;;15.60;48.80;;;;;;6260346;22;20282;-78
2021/01/31 09:32:42;;;;;;;8.30;4.43;;;15.70;48.80;;;;;;6275789;22;20015;-78
2021/01/31 09:35:11;;;;;;;12.98;5.07;;;15.70;48.90;;;;;;6286680;22;20023;-78
2021/01/31 09:37:37;;;;;;;12.68;5.20;;;15.70;49.30;;;;;;6276367;22;20027;-78
2021/01/31 09:40:07;;;;;;;9.55;4.30;;;15.80;49.70;;;;;;6288472;22;20447;-79
2021/01/31 09:42:36;;;;;;;7.45;4.03;;;15.80;49.70;;;;;;6286164;22;20026;-77
2021/01/31 09:45:29;;;;;;;14.52;4.60;;;15.80;49.80;;;;;;6287521;22;20035;-78
2021/01/31 09:47:56;;;;;;;20.85;5.00;;;15.80;49.80;;;;;;6287957;22;20016;-79
2021/01/31 09:50:22;;;;;;;14.38;7.88;;;15.80;49.70;;;;;;6288076;22;20004;-78
2021/01/31 09:52:50;;;;;;;14.20;6.68;;;15.80;46.80;;;;;;6288744;22;20007;-78
2021/01/31 09:55:39;;;;;;;14.77;6.13;;;15.70;45.80;;;;;;6289267;22;20092;-78
2021/01/31 09:58:45;;;;;;;8.60;5.30;;;15.60;46.80;;;;;;6289526;22;20035;-79
2021/01/31 10:01:12;;;;;;;10.57;5.85;;;15.50;47.40;;;;;;6278367;22;20049;-79
2021/01/31 10:03:39;;;;;;;10.13;5.00;;;15.50;47.60;;;;;;6287933;22;20015;-79
2021/01/31 10:06:14;;;;;;;5.20;4.68;;;15.40;47.60;;;;;;6288594;22;20015;-79
2021/01/31 10:08:56;;;;;;;6.43;5.60;;;15.40;47.60;;;;;;6288808;22;20308;-78
2021/01/31 10:11:28;;;;;;;8.73;5.35;;;15.40;47.60;;;;;;6288719;22;20073;-78
2021/01/31 10:13:55;;;;;;;7.28;4.63;;;15.30;47.40;;;;;;6288649;22;20100;-78
2021/01/31 10:16:27;;;;;;;6.50;4.55;;;15.30;47.20;;;;;;6288523;22;20108;-78
2021/01/31 10:18:53;;;;;;;7.20;5.40;;;15.30;47.10;;;;;;6289586;22;20086;-79
2021/01/31 10:21:28;;;;;;;7.63;5.07;;;15.30;47.00;;;;;;6288973;22;20066;-78
2021/01/31 10:24:02;;;;;;;7.05;5.18;;;15.20;46.70;;;;;;6279959;22;20012;-78
2021/01/31 10:26:28;;;;;;;6.03;5.05;;;15.20;46.70;;;;;;6252502;22;20026;-79
2021/01/31 10:29:03;;;;;;;7.50;5.15;;;15.20;46.60;;;;;;6287600;22;20019;-78
2021/01/31 10:31:38;;;;;;;7.22;5.40;;;15.20;46.40;;;;;;6287786;22;20340;-79
2021/01/31 10:34:07;;;;;;;7.60;5.40;;;15.10;46.30;;;;;;6288840;22;20054;-78
2021/01/31 10:36:34;;;;;;;8.10;5.10;;;15.10;46.40;;;;;;6288174;22;20376;-78
2021/01/31 10:39:24;;;;;;;6.47;5.43;;;15.10;46.50;;;;;;6288372;22;20366;-78
2021/01/31 10:41:50;;;;;;;5.95;5.13;;;15.10;46.50;;;;;;6288355;22;20011;-78
2021/01/31 10:44:24;;;;;;;8.98;6.00;;;15.00;46.60;;;;;;6288401;22;20016;-79
2021/01/31 10:46:49;;;;;;;7.28;5.80;;;15.00;46.50;;;;;;6288423;22;20363;-79
2021/01/31 10:49:15;;;;;;;7.30;4.70;;;15.00;46.60;;;;;;6289359;22;20081;-79
2021/01/31 10:51:43;;;;;;;6.97;5.53;;;15.00;46.70;;;;;;6288193;22;20081;-79
2021/01/31 10:54:10;;;;;;;6.85;5.03;;;14.90;46.80;;;;;;6289215;22;20015;-78
2021/01/31 10:56:36;;;;;;;5.90;4.82;;;14.90;47.00;;;;;;6288288;22;20012;-78
2021/01/31 10:59:01;;;;;;;7.15;4.45;;;15.00;47.10;;;;;;6289358;22;20419;-78
2021/01/31 11:01:29;;;;;;;5.40;4.47;;;14.90;47.10;;;;;;6278427;22;20027;-79
2021/01/31 11:03:55;;;;;;;6.40;4.85;;;14.90;47.00;;;;;;6278536;22;20058;-78
2021/01/31 11:06:21;;;;;;;6.93;4.68;;;14.90;47.00;;;;;;6289001;22;20015;-78
2021/01/31 11:08:49;;;;;;;5.05;4.40;;;14.90;47.00;;;;;;6289287;22;20027;-78
2021/01/31 11:11:15;;;;;;;6.68;4.35;;;14.90;47.10;;;;;;6287765;22;20034;-78
2021/01/31 11:13:40;;;;;;;4.95;4.45;;;14.90;47.20;;;;;;6289359;22;20016;-78
2021/01/31 11:16:06;;;;;;;4.78;4.15;;;14.90;47.20;;;;;;6288386;22;20091;-78
2021/01/31 11:18:32;;;;;;;4.93;3.95;;;14.90;47.10;;;;;;6288945;22;20297;-78
2021/01/31 11:20:58;;;;;;;4.50;3.72;;;14.90;47.20;;;;;;6288560;22;20022;-78
2021/01/31 11:23:24;;;;;;;5.47;4.15;;;14.80;47.20;;;;;;6289132;22;20024;-78
2021/01/31 11:25:50;;;;;;;4.93;3.63;;;14.80;47.20;;;;;;6288507;22;20015;-78
2021/01/31 11:28:17;;;;;;;4.32;3.70;;;14.80;47.20;;;;;;6277759;22;20012;-78
2021/01/31 11:30:47;;;;;;;3.90;3.33;;;14.80;47.20;;;;;;6288764;22;20023;-78
2021/01/31 11:33:13;;;;;;;5.32;3.88;;;14.80;47.20;;;;;;6287770;22;20022;-78
2021/01/31 11:35:40;;;;;;;4.78;3.92;;;14.80;47.10;;;;;;6288146;22;20081;-78
2021/01/31 11:38:06;;;;;;;4.38;3.53;;;14.80;47.10;;;;;;6288172;22;20041;-78
2021/01/31 11:40:32;;;;;;;3.95;3.53;;;14.80;47.10;;;;;;6288775;22;20023;-79
2021/01/31 11:42:58;;;;;;;3.75;3.17;;;14.80;47.10;;;;;;6288765;22;20015;-79
2021/01/31 11:45:26;;;;;;;4.20;3.50;;;14.80;47.10;;;;;;6289034;22;20412;-79
2021/01/31 11:47:52;;;;;;;4.05;3.38;;;14.80;47.10;;;;;;6288689;22;20011;-78
2021/01/31 11:50:19;;;;;;;3.53;3.15;;;14.80;47.10;;;;;;6288076;22;20309;-79
2021/01/31 11:52:45;;;;;;;4.13;3.38;;;14.80;47.10;;;;;;6277820;22;20060;-79
2021/01/31 11:55:12;;;;;;;4.07;3.65;;;14.80;47.10;;;;;;6278632;22;20290;-79
2021/01/31 11:57:38;;;;;;;3.65;3.03;;;14.80;47.10;;;;;;6280537;22;20371;-78
2021/01/31 12:00:07;;;;;;;3.88;3.47;;;14.80;47.10;;;;;;6290433;22;20037;-78
2021/01/31 12:02:33;;;;;;;3.63;3.10;;;14.80;47.10;;;;;;6290323;22;20011;-79
2021/01/31 12:05:00;;;;;;;4.35;3.38;;;14.80;47.10;;;;;;6289667;22;20015;-78
2021/01/31 12:07:26;;;;;;;4.32;2.95;;;14.80;47.00;;;;;;6290048;22;20016;-79
2021/01/31 12:09:52;;;;;;;3.58;3.10;;;14.80;47.00;;;;;;6290923;22;20019;-78
2021/01/31 12:12:18;;;;;;;3.97;3.13;;;14.80;47.10;;;;;;6290567;22;20427;-79
2021/01/31 12:14:44;;;;;;;3.63;3.03;;;14.80;47.10;;;;;;6290149;22;20096;-78
2021/01/31 12:17:10;;;;;;;3.47;2.97;;;14.80;47.10;;;;;;6290313;22;20011;-78
2021/01/31 12:19:35;;;;;;;4.53;3.13;;;14.80;47.00;;;;;;6290196;22;20312;-79
2021/01/31 12:22:01;;;;;;;3.17;2.72;;;14.80;47.00;;;;;;6290208;22;20035;-78
2021/01/31 12:24:27;;;;;;;3.95;3.30;;;14.80;47.00;;;;;;6290826;22;20035;-78
2021/01/31 12:26:53;;;;;;;4.15;3.17;;;14.70;47.00;;;;;;6290073;22;20027;-78
2021/01/31 12:29:19;;;;;;;4.88;3.05;;;14.80;47.10;;;;;;6289964;22;20016;-79
2021/01/31 12:31:45;;;;;;;3.33;2.67;;;14.80;47.10;;;;;;6289480;22;20026;-78
2021/01/31 12:34:10;;;;;;;3.13;2.67;;;14.80;47.10;;;;;;6289606;22;20058;-79
2021/01/31 12:36:36;;;;;;;3.08;2.63;;;14.80;46.90;;;;;;6289914;22;20012;-79
2021/01/31 12:39:04;;;;;;;2.97;2.42;;;14.80;46.80;;;;;;6289792;22;20336;-78
2021/01/31 12:41:30;;;;;;;3.00;2.40;;;14.80;46.80;;;;;;6279841;22;20007;-79
2021/01/31 12:43:56;;;;;;;2.83;2.45;;;14.70;46.70;;;;;;6289444;22;20044;-79
2021/01/31 12:46:22;;;;;;;3.05;2.40;;;14.80;46.80;;;;;;6279870;22;20368;-79
2021/01/31 12:48:48;;;;;;;2.65;2.33;;;14.80;46.80;;;;;;6289901;22;20011;-79
2021/01/31 12:51:14;;;;;;;2.92;2.45;;;14.80;46.80;;;;;;6290725;22;20016;-79
2021/01/31 12:53:42;;;;;;;2.30;2.00;;;14.80;46.80;;;;;;6289633;22;20408;-79
2021/01/31 12:56:08;;;;;;;3.13;2.47;;;14.80;46.80;;;;;;6290785;22;20137;-79
2021/01/31 12:58:34;;;;;;;3.50;2.67;;;14.80;46.80;;;;;;6289523;22;20058;-79
2021/01/31 13:01:00;;;;;;;2.88;2.20;;;14.80;46.80;;;;;;6285566;22;20083;-79
2021/01/31 13:03:25;;;;;;;2.60;2.20;;;14.80;46.70;;;;;;6289286;22;20042;-79
2021/01/31 13:05:51;;;;;;;3.45;2.35;;;14.80;46.70;;;;;;6262926;22;20034;-78
2021/01/31 13:08:17;;;;;;;2.90;2.42;;;14.80;46.70;;;;;;6289002;22;20305;-78
2021/01/31 13:10:43;;;;;;;2.40;1.98;;;14.80;46.70;;;;;;6289681;22;20079;-79
2021/01/31 13:13:09;;;;;;;3.90;2.58;;;14.80;46.70;;;;;;6288833;22;20026;-78